createdAt,value
2023-05-07T00:02:09.446Z,3.60
2023-05-07T00:04:38.952Z,3.47
2023-05-07T00:07:07.311Z,3.17
2023-05-07T00:09:36.221Z,3.55
2023-05-07T00:12:07.566Z,3.28
2023-05-07T00:14:35.506Z,2.45
2023-05-07T00:17:06.028Z,3.20
2023-05-07T00:19:33.864Z,3.50
2023-05-07T00:22:03.167Z,3.17
2023-05-07T00:24:31.027Z,2.80
2023-05-07T00:26:59.288Z,2.90
2023-05-07T00:29:27.462Z,2.80
2023-05-07T00:31:56.317Z,3.50
2023-05-07T00:34:31.025Z,2.85
2023-05-07T00:37:06.612Z,2.88
2023-05-07T00:39:35.262Z,2.63
2023-05-07T00:42:06.477Z,3.08
2023-05-07T00:44:41.670Z,3.05
2023-05-07T00:47:09.692Z,2.83
2023-05-07T00:49:44.018Z,3.25
2023-05-07T00:52:21.631Z,3.28
2023-05-07T00:54:50.650Z,2.88
2023-05-07T00:57:18.867Z,3.30
2023-05-07T00:59:46.874Z,3.50
2023-05-07T01:02:15.554Z,3.03
2023-05-07T01:04:43.485Z,3.13
2023-05-07T01:07:14.094Z,3.00
2023-05-07T01:09:47.572Z,3.28
2023-05-07T01:12:17.018Z,3.30
2023-05-07T01:14:45.234Z,3.13
2023-05-07T01:17:13.418Z,3.53
2023-05-07T01:19:42.311Z,2.53
2023-05-07T01:22:15.751Z,3.05
2023-05-07T01:24:50.679Z,3.20
2023-05-07T01:27:19.229Z,3.13
2023-05-07T01:29:51.622Z,3.33
2023-05-07T01:32:28.972Z,3.58
2023-05-07T01:34:58.862Z,4.53
2023-05-07T01:37:27.382Z,4.43
2023-05-07T01:39:58.913Z,3.70
2023-05-07T01:42:27.730Z,3.33
2023-05-07T01:44:55.939Z,4.18
2023-05-07T01:47:24.794Z,4.35
2023-05-07T01:49:54.251Z,4.10
2023-05-07T01:52:24.658Z,4.00
2023-05-07T01:54:52.989Z,3.75
2023-05-07T01:57:22.151Z,3.90
2023-05-07T01:59:50.049Z,3.72
2023-05-07T02:02:17.858Z,2.90
2023-05-07T02:04:49.199Z,3.00
2023-05-07T02:07:24.082Z,3.22
2023-05-07T02:09:56.632Z,2.88
2023-05-07T02:12:24.563Z,2.75
2023-05-07T02:14:54.713Z,3.13
2023-05-07T02:17:22.737Z,2.78
2023-05-07T02:19:53.269Z,3.13
2023-05-07T02:22:24.483Z,3.13
2023-05-07T02:24:53.554Z,3.47
2023-05-07T02:27:24.943Z,2.95
2023-05-07T02:36:31.271Z,3.17
2023-05-07T02:39:13.910Z,2.88
2023-05-07T02:41:56.276Z,3.55
2023-05-07T02:44:38.284Z,3.10
2023-05-07T02:47:11.735Z,3.10
2023-05-07T02:49:50.793Z,3.30
2023-05-07T02:52:34.558Z,2.75
2023-05-07T02:55:19.639Z,3.00
2023-05-07T02:57:50.447Z,2.88
2023-05-07T03:00:20.163Z,2.53
2023-05-07T03:03:12.172Z,2.63
2023-05-07T03:05:40.237Z,2.58
2023-05-07T03:08:10.879Z,2.83
2023-05-07T03:10:42.637Z,2.42
2023-05-07T03:13:13.561Z,2.50
2023-05-07T03:15:42.250Z,2.72
2023-05-07T03:18:10.903Z,2.72
2023-05-07T03:20:39.221Z,2.38
2023-05-07T03:23:08.590Z,2.45
2023-05-07T03:25:37.079Z,2.83
2023-05-07T03:28:05.031Z,2.05
2023-05-07T03:30:40.564Z,2.90
2023-05-07T03:33:09.632Z,2.53
2023-05-07T03:35:37.822Z,2.58
2023-05-07T03:38:13.535Z,2.38
2023-05-07T03:40:42.216Z,2.47
2023-05-07T03:43:10.884Z,2.33
2023-05-07T03:45:42.017Z,2.80
2023-05-07T03:48:17.249Z,2.53
2023-05-07T03:50:45.203Z,2.40
2023-05-07T03:53:13.283Z,2.30
2023-05-07T03:55:41.298Z,2.70
2023-05-07T03:58:09.066Z,2.20
2023-05-07T04:00:39.508Z,2.30
2023-05-07T04:03:17.636Z,2.20
2023-05-07T04:05:46.079Z,2.38
2023-05-07T04:08:13.997Z,2.40
2023-05-07T04:10:47.043Z,1.85
2023-05-07T04:13:15.315Z,2.28
2023-05-07T04:15:43.939Z,1.90
2023-05-07T04:18:14.401Z,2.30
2023-05-07T04:20:45.237Z,2.25
2023-05-07T04:23:15.374Z,2.00
2023-05-07T04:25:43.692Z,2.42
2023-05-07T04:30:48.329Z,2.40
2023-05-07T04:33:18.229Z,1.90
2023-05-07T04:35:48.094Z,2.28
2023-05-07T04:38:17.595Z,2.55
2023-05-07T04:40:48.126Z,2.28
2023-05-07T04:43:20.814Z,2.50
2023-05-07T04:45:56.802Z,1.90
2023-05-07T04:48:28.646Z,1.95
2023-05-07T04:51:10.325Z,2.03
2023-05-07T04:53:46.213Z,1.98
2023-05-07T04:56:21.901Z,2.28
2023-05-07T04:58:50.145Z,2.17
2023-05-07T05:01:21.210Z,2.10
2023-05-07T05:04:06.298Z,2.00
2023-05-07T05:06:35.838Z,1.88
2023-05-07T05:09:06.611Z,3.35
2023-05-07T05:11:55.406Z,3.60
2023-05-07T05:14:26.571Z,2.83
2023-05-07T05:16:59.303Z,3.40
2023-05-07T05:19:48.184Z,3.22
2023-05-07T05:22:18.924Z,3.22
2023-05-07T05:24:47.072Z,2.28
2023-05-07T05:27:17.522Z,2.45
2023-05-07T05:29:46.002Z,2.22
2023-05-07T05:32:17.298Z,2.72
2023-05-07T05:34:46.048Z,2.35
2023-05-07T05:37:16.848Z,2.40
2023-05-07T05:39:45.833Z,2.42
2023-05-07T05:42:15.606Z,2.15
2023-05-07T05:44:48.202Z,2.50
2023-05-07T05:47:16.452Z,2.58
2023-05-07T05:49:46.180Z,2.65
2023-05-07T05:52:17.970Z,2.55
2023-05-07T05:54:49.383Z,2.30
2023-05-07T05:57:23.383Z,2.38
2023-05-07T05:59:53.240Z,2.05
2023-05-07T06:02:21.156Z,2.13
2023-05-07T06:04:49.635Z,2.08
2023-05-07T06:07:21.805Z,2.03
2023-05-07T06:09:52.181Z,2.47
2023-05-07T06:12:22.650Z,1.83
2023-05-07T06:14:50.859Z,2.08
2023-05-07T06:17:22.281Z,1.80
2023-05-07T06:19:52.404Z,2.47
2023-05-07T06:22:22.395Z,1.95
2023-05-07T06:24:51.046Z,2.42
2023-05-07T06:27:21.049Z,2.47
2023-05-07T06:29:49.857Z,2.08
2023-05-07T06:32:19.789Z,2.05
2023-05-07T06:34:47.994Z,2.38
2023-05-07T06:37:17.369Z,4.47
2023-05-07T06:39:57.527Z,1.75
2023-05-07T06:42:28.318Z,1.92
2023-05-07T06:45:01.698Z,2.08
2023-05-07T06:47:32.008Z,2.67
2023-05-07T06:49:59.726Z,2.40
2023-05-07T06:52:31.843Z,2.10
2023-05-07T06:54:59.721Z,1.92
2023-05-07T06:57:29.490Z,2.15
2023-05-07T06:59:58.691Z,2.05
2023-05-07T07:02:27.371Z,2.05
2023-05-07T07:04:56.056Z,2.47
2023-05-07T07:07:23.822Z,1.85
2023-05-07T07:09:52.677Z,2.30
2023-05-07T07:12:21.000Z,2.08
2023-05-07T07:14:49.267Z,2.50
2023-05-07T07:17:18.027Z,2.45
2023-05-07T07:19:46.017Z,2.15
2023-05-07T07:22:13.854Z,2.60
2023-05-07T07:24:42.117Z,2.50
2023-05-07T07:27:11.780Z,2.15
2023-05-07T07:29:40.895Z,2.38
2023-05-07T07:32:09.224Z,3.25
2023-05-07T07:34:37.411Z,4.18
2023-05-07T07:37:07.210Z,3.30
2023-05-07T07:39:38.927Z,3.50
2023-05-07T07:42:08.675Z,3.00
2023-05-07T07:44:37.064Z,2.38
2023-05-07T07:47:08.828Z,2.40
2023-05-07T07:49:38.365Z,2.50
2023-05-07T07:52:08.085Z,2.60
2023-05-07T07:54:39.237Z,3.53
2023-05-07T07:57:08.704Z,2.72
2023-05-07T07:59:36.724Z,2.97
2023-05-07T08:02:05.470Z,2.58
2023-05-07T08:04:34.721Z,2.20
2023-05-07T08:07:07.032Z,2.97
2023-05-07T08:09:41.502Z,3.70
2023-05-07T08:12:10.431Z,4.28
2023-05-07T08:14:40.058Z,4.50
2023-05-07T08:17:10.838Z,4.07
2023-05-07T08:19:40.730Z,4.88
2023-05-07T08:22:12.845Z,6.32
2023-05-07T08:24:41.826Z,6.80
2023-05-07T08:27:11.842Z,9.02
2023-05-07T08:29:42.827Z,9.82
2023-05-07T08:32:11.042Z,9.77
2023-05-07T08:35:04.541Z,9.20
2023-05-07T08:37:32.691Z,8.30
2023-05-07T08:40:01.409Z,7.70
2023-05-07T08:42:38.349Z,7.35
2023-05-07T08:45:11.820Z,6.97
2023-05-07T08:47:51.333Z,7.97
2023-05-07T08:50:22.833Z,7.30
2023-05-07T08:52:52.393Z,8.30
2023-05-07T08:55:22.925Z,9.60
2023-05-07T08:57:53.890Z,8.68
2023-05-07T09:00:23.010Z,8.00
2023-05-07T09:02:56.054Z,7.85
2023-05-07T09:05:24.850Z,7.85
2023-05-07T09:07:54.619Z,7.45
2023-05-07T09:10:26.501Z,8.27
2023-05-07T09:12:55.834Z,8.30
2023-05-07T09:15:24.258Z,8.80
2023-05-07T09:17:52.286Z,9.70
2023-05-07T09:20:21.400Z,8.38
2023-05-07T09:22:52.578Z,7.38
2023-05-07T09:25:30.374Z,5.57
2023-05-07T09:28:01.363Z,4.55
2023-05-07T09:30:31.643Z,3.00
2023-05-07T09:33:04.558Z,3.65
2023-05-07T09:35:34.586Z,3.10
2023-05-07T09:38:10.062Z,2.85
2023-05-07T09:40:39.316Z,2.70
2023-05-07T09:43:14.762Z,3.17
2023-05-07T09:45:54.030Z,2.58
2023-05-07T09:48:27.866Z,2.92
2023-05-07T09:50:59.834Z,2.55
2023-05-07T09:53:32.333Z,2.20
2023-05-07T09:56:05.258Z,2.58
2023-05-07T09:58:38.281Z,2.85
2023-05-07T10:01:08.247Z,2.80
2023-05-07T10:03:37.979Z,2.60
2023-05-07T10:06:10.026Z,2.63
2023-05-07T10:08:38.658Z,2.47
2023-05-07T10:11:12.123Z,3.00
2023-05-07T10:13:41.091Z,3.67
2023-05-07T10:16:13.330Z,2.90
2023-05-07T10:18:47.606Z,2.90
2023-05-07T10:21:22.590Z,9.68
2023-05-07T10:23:59.223Z,9.52
2023-05-07T10:26:31.334Z,12.73
2023-05-07T10:29:08.494Z,20.23
2023-05-07T10:31:36.513Z,20.30
2023-05-07T10:34:12.376Z,15.38
2023-05-07T10:36:41.106Z,14.68
2023-05-07T10:39:11.234Z,14.00
2023-05-07T10:41:40.837Z,18.33
2023-05-07T10:44:12.610Z,19.83
2023-05-07T10:46:41.644Z,17.92
2023-05-07T10:49:24.015Z,16.98
2023-05-07T10:52:35.689Z,18.17
2023-05-07T10:55:16.127Z,16.25
2023-05-07T10:57:46.807Z,15.77
2023-05-07T11:00:39.087Z,12.82
2023-05-07T11:03:12.991Z,11.85
2023-05-07T11:06:09.807Z,11.10
2023-05-07T11:08:55.029Z,8.98
2023-05-07T11:11:53.645Z,8.38
2023-05-07T11:14:44.811Z,7.80
2023-05-07T11:17:17.824Z,8.90
2023-05-07T11:19:54.493Z,8.85
2023-05-07T11:22:42.992Z,9.23
2023-05-07T11:25:29.107Z,9.73
2023-05-07T11:28:12.278Z,8.73
2023-05-07T11:30:47.399Z,8.57
2023-05-07T11:33:20.967Z,7.93
2023-05-07T11:35:52.165Z,8.50
2023-05-07T11:38:22.342Z,7.22
2023-05-07T11:40:57.379Z,7.85
2023-05-07T11:43:25.359Z,6.70
2023-05-07T11:45:53.327Z,6.45
2023-05-07T11:48:23.845Z,8.43
2023-05-07T11:51:01.679Z,7.95
2023-05-07T11:53:37.922Z,21.13
2023-05-07T11:56:14.898Z,21.33
2023-05-07T11:58:45.624Z,24.45
2023-05-07T12:01:15.107Z,23.35
2023-05-07T12:03:44.395Z,19.70
2023-05-07T12:06:15.761Z,15.52
2023-05-07T12:08:46.996Z,12.65
2023-05-07T12:11:22.947Z,10.82
2023-05-07T12:13:50.808Z,11.05
2023-05-07T12:16:20.566Z,11.20
2023-05-07T12:18:49.058Z,10.93
2023-05-07T12:21:18.522Z,10.52
2023-05-07T12:23:46.843Z,11.43
2023-05-07T12:26:14.677Z,9.48
2023-05-07T12:28:44.003Z,8.70
2023-05-07T12:31:12.462Z,8.23
2023-05-07T12:33:41.360Z,7.45
2023-05-07T12:36:09.689Z,7.20
2023-05-07T12:38:39.050Z,6.47
2023-05-07T12:41:09.087Z,5.68
2023-05-07T12:43:37.830Z,5.43
2023-05-07T12:46:08.356Z,5.22
2023-05-07T12:48:39.006Z,4.70
2023-05-07T12:51:08.977Z,4.40
2023-05-07T12:53:41.709Z,3.83
2023-05-07T12:56:09.890Z,3.67
2023-05-07T12:58:39.124Z,3.90
2023-05-07T13:01:11.102Z,3.72
2023-05-07T13:03:39.977Z,3.53
2023-05-07T13:06:11.497Z,3.40
2023-05-07T13:08:44.855Z,3.50
2023-05-07T13:11:14.224Z,3.55
2023-05-07T13:13:42.958Z,3.50
2023-05-07T13:16:12.378Z,3.40
2023-05-07T13:18:42.157Z,3.20
2023-05-07T13:21:11.437Z,3.20
2023-05-07T13:23:39.884Z,2.97
2023-05-07T13:26:24.884Z,3.00
2023-05-07T13:28:55.608Z,3.33
2023-05-07T13:31:23.380Z,3.30
2023-05-07T13:33:51.477Z,3.45
2023-05-07T13:36:19.541Z,3.00
2023-05-07T13:38:48.481Z,3.33
2023-05-07T13:41:16.368Z,2.90
2023-05-07T13:43:44.323Z,2.53
2023-05-07T13:46:13.958Z,2.60
2023-05-07T13:48:41.968Z,2.65
2023-05-07T13:51:09.800Z,2.50
2023-05-07T13:53:37.577Z,2.05
2023-05-07T13:56:06.212Z,1.95
2023-05-07T13:58:42.203Z,2.20
2023-05-07T14:01:14.236Z,2.20
2023-05-07T14:03:42.675Z,2.20
2023-05-07T14:06:10.546Z,2.33
2023-05-07T14:08:38.513Z,1.92
2023-05-07T14:11:07.984Z,1.90
2023-05-07T14:13:35.992Z,1.70
2023-05-07T14:16:06.928Z,1.70
2023-05-07T14:18:38.295Z,1.30
2023-05-07T14:21:07.548Z,1.50
2023-05-07T14:23:36.349Z,1.52
2023-05-07T14:26:04.192Z,1.67
2023-05-07T14:28:32.501Z,1.60
2023-05-07T14:31:01.252Z,1.70
2023-05-07T14:33:29.039Z,1.50
2023-05-07T14:35:57.002Z,1.63
2023-05-07T14:38:24.807Z,1.83
2023-05-07T14:40:53.400Z,2.10
2023-05-07T14:43:21.489Z,1.83
2023-05-07T14:45:51.304Z,2.05
2023-05-07T14:48:21.218Z,2.10
2023-05-07T14:50:49.540Z,2.40
2023-05-07T14:53:18.213Z,2.63
2023-05-07T14:55:47.376Z,2.30
2023-05-07T14:58:15.638Z,2.40
2023-05-07T15:00:43.400Z,1.98
2023-05-07T15:03:12.001Z,2.10
2023-05-07T15:05:42.992Z,2.10
2023-05-07T15:08:11.055Z,2.08
2023-05-07T15:10:42.359Z,2.20
2023-05-07T15:13:14.733Z,2.85
2023-05-07T15:15:49.495Z,1.98
2023-05-07T15:18:17.803Z,1.63
2023-05-07T15:20:46.721Z,1.80
2023-05-07T15:23:16.037Z,1.50
2023-05-07T15:25:52.121Z,1.55
2023-05-07T15:28:20.687Z,1.50
2023-05-07T15:30:48.558Z,1.50
2023-05-07T15:33:16.295Z,1.73
2023-05-07T15:35:45.293Z,1.70
2023-05-07T15:38:14.269Z,1.90
2023-05-07T15:40:43.366Z,1.60
2023-05-07T15:43:15.822Z,1.40
2023-05-07T15:45:44.727Z,1.40
2023-05-07T15:48:12.635Z,1.17
2023-05-07T15:50:41.614Z,1.40
2023-05-07T15:53:10.020Z,1.30
2023-05-07T15:55:38.122Z,1.63
2023-05-07T15:58:07.040Z,1.35
2023-05-07T16:00:36.559Z,1.52
2023-05-07T16:03:04.561Z,1.70
2023-05-07T16:05:33.462Z,1.40
2023-05-07T16:08:04.285Z,1.38
2023-05-07T16:10:32.150Z,1.30
2023-05-07T16:13:01.796Z,1.70
2023-05-07T16:15:30.608Z,2.08
2023-05-07T16:18:00.219Z,2.15
2023-05-07T16:20:32.388Z,2.10
2023-05-07T16:23:00.322Z,1.70
2023-05-07T16:25:29.279Z,1.60
2023-05-07T16:27:57.616Z,1.92
2023-05-07T16:30:26.575Z,1.80
2023-05-07T16:32:55.150Z,1.52
2023-05-07T16:35:24.490Z,1.80
2023-05-07T16:37:53.330Z,1.67
2023-05-07T16:40:21.501Z,2.13
2023-05-07T16:42:49.380Z,1.40
2023-05-07T16:45:19.110Z,1.60
2023-05-07T16:47:47.093Z,1.42
2023-05-07T16:50:15.036Z,1.92
2023-05-07T16:52:42.901Z,1.98
2023-05-07T16:55:11.718Z,2.08
2023-05-07T16:57:39.869Z,3.67
2023-05-07T17:00:09.670Z,4.55
2023-05-07T17:02:38.489Z,4.03
2023-05-07T17:05:09.126Z,2.90
2023-05-07T17:07:37.659Z,2.40
2023-05-07T17:10:07.314Z,2.20
2023-05-07T17:12:36.045Z,1.77
2023-05-07T17:15:05.396Z,2.00
2023-05-07T17:17:34.264Z,1.55
2023-05-07T17:20:06.202Z,1.80
2023-05-07T17:22:35.082Z,1.70
2023-05-07T17:25:14.981Z,1.80
2023-05-07T17:27:57.769Z,1.45
2023-05-07T17:33:09.335Z,1.40
2023-05-07T17:35:45.412Z,1.67
2023-05-07T17:38:13.202Z,1.95
2023-05-07T17:40:41.174Z,1.88
2023-05-07T17:43:10.015Z,2.10
2023-05-07T17:45:39.207Z,2.22
2023-05-07T17:48:08.554Z,3.05
2023-05-07T17:50:36.402Z,4.28
2023-05-07T17:53:06.214Z,6.00
2023-05-07T17:55:37.572Z,5.60
2023-05-07T17:58:05.303Z,5.32
2023-05-07T18:00:33.626Z,3.83
2023-05-07T18:03:02.198Z,3.40
2023-05-07T18:05:31.439Z,3.10
2023-05-07T18:08:00.320Z,22.88
2023-05-07T18:10:29.691Z,9.90
2023-05-07T18:12:57.673Z,8.90
2023-05-07T18:15:27.183Z,6.65
2023-05-07T18:17:55.551Z,5.38
2023-05-07T18:20:24.015Z,3.97
2023-05-07T18:22:51.858Z,2.58
2023-05-07T18:25:20.651Z,2.40
2023-05-07T18:27:48.591Z,2.13
2023-05-07T18:30:16.726Z,2.25
2023-05-07T18:32:45.604Z,2.38
2023-05-07T18:35:13.834Z,2.17
2023-05-07T18:37:42.518Z,2.28
2023-05-07T18:40:11.204Z,2.40
2023-05-07T18:42:39.176Z,3.00
2023-05-07T18:45:07.920Z,2.83
2023-05-07T18:47:36.116Z,3.00
2023-05-07T18:50:07.471Z,3.03
2023-05-07T18:52:37.675Z,2.95
2023-05-07T18:55:07.049Z,2.28
2023-05-07T18:57:35.672Z,2.58
2023-05-07T19:00:06.884Z,2.40
2023-05-07T19:02:38.159Z,2.17
2023-05-07T19:05:11.983Z,2.72
2023-05-07T19:07:41.312Z,3.17
2023-05-07T19:10:09.448Z,9.82
2023-05-07T19:12:38.217Z,9.18
2023-05-07T19:15:07.825Z,5.78
2023-05-07T19:17:36.144Z,4.95
2023-05-07T19:20:04.979Z,4.72
2023-05-07T19:22:33.198Z,4.68
2023-05-07T19:25:01.368Z,3.67
2023-05-07T19:27:30.248Z,2.75
2023-05-07T19:29:59.416Z,3.00
2023-05-07T19:32:27.765Z,3.33
2023-05-07T19:34:56.074Z,3.28
2023-05-07T19:37:25.924Z,3.58
2023-05-07T19:39:55.891Z,3.55
2023-05-07T19:42:24.256Z,5.05
2023-05-07T19:44:52.229Z,4.65
2023-05-07T19:47:21.983Z,4.70
2023-05-07T19:49:50.135Z,4.00
2023-05-07T19:52:19.401Z,3.35
2023-05-07T19:54:47.441Z,5.43
2023-05-07T19:57:18.067Z,5.60
2023-05-07T19:59:48.771Z,5.18
2023-05-07T20:02:17.901Z,4.50
2023-05-07T20:04:45.981Z,5.40
2023-05-07T20:07:15.291Z,12.05
2023-05-07T20:09:44.298Z,14.77
2023-05-07T20:12:13.278Z,14.43
2023-05-07T20:14:43.350Z,11.73
2023-05-07T20:17:13.274Z,7.82
2023-05-07T20:19:41.284Z,6.53
2023-05-07T20:22:10.074Z,5.53
2023-05-07T20:24:39.411Z,5.00
2023-05-07T20:27:07.739Z,4.60
2023-05-07T20:29:39.431Z,5.10
2023-05-07T20:32:08.431Z,4.22
2023-05-07T20:34:36.816Z,3.22
2023-05-07T20:37:06.163Z,3.67
2023-05-07T20:39:35.537Z,4.10
2023-05-07T20:42:03.391Z,4.45
2023-05-07T20:44:38.427Z,7.32
2023-05-07T20:47:08.603Z,8.13
2023-05-07T20:49:37.036Z,6.30
2023-05-07T20:52:06.414Z,5.72
2023-05-07T20:54:40.118Z,5.38
2023-05-07T20:57:08.019Z,5.03
2023-05-07T20:59:37.127Z,4.10
2023-05-07T21:02:05.642Z,3.60
2023-05-07T21:04:33.721Z,3.33
2023-05-07T21:07:03.696Z,3.42
2023-05-07T21:09:32.112Z,3.38
2023-05-07T21:12:00.066Z,3.90
2023-05-07T21:14:29.790Z,2.95
2023-05-07T21:17:00.315Z,3.40
2023-05-07T21:19:28.749Z,2.65
2023-05-07T21:21:58.429Z,2.53
2023-05-07T21:24:27.005Z,2.53
2023-05-07T21:26:56.165Z,2.33
2023-05-07T21:29:24.767Z,2.60
2023-05-07T21:31:53.476Z,2.28
2023-05-07T21:34:21.478Z,2.70
2023-05-07T21:36:50.259Z,2.88
2023-05-07T21:39:18.413Z,2.83
2023-05-07T21:41:46.486Z,2.90
2023-05-07T21:44:15.101Z,2.63
2023-05-07T21:46:45.144Z,2.75
2023-05-07T21:49:14.300Z,3.38
2023-05-07T21:51:43.375Z,3.40
2023-05-07T21:54:11.160Z,3.45
2023-05-07T21:56:39.100Z,3.13
2023-05-07T21:59:07.007Z,3.00
2023-05-07T22:01:35.698Z,3.45
2023-05-07T22:04:03.800Z,3.38
2023-05-07T22:06:32.052Z,3.70
2023-05-07T22:09:00.603Z,3.45
2023-05-07T22:11:28.396Z,2.95
2023-05-07T22:13:56.191Z,3.22
2023-05-07T22:16:24.247Z,2.97
2023-05-07T22:18:52.132Z,3.20
2023-05-07T22:21:20.023Z,3.85
2023-05-07T22:23:48.703Z,3.55
2023-05-07T22:26:17.196Z,3.85
2023-05-07T22:28:47.352Z,4.63
2023-05-07T22:31:16.467Z,5.10
2023-05-07T22:33:45.161Z,4.63
2023-05-07T22:36:13.114Z,4.28
2023-05-07T22:38:41.634Z,3.83
2023-05-07T22:41:10.053Z,4.07
2023-05-07T22:43:38.248Z,4.70
2023-05-07T22:46:06.265Z,5.53
2023-05-07T22:48:34.126Z,5.35
2023-05-07T22:51:01.994Z,4.30
2023-05-07T22:53:31.196Z,3.38
2023-05-07T22:56:06.324Z,3.40
2023-05-07T22:58:34.465Z,4.32
2023-05-07T23:01:03.317Z,3.42
2023-05-07T23:03:32.514Z,2.78
2023-05-07T23:06:00.330Z,2.58
2023-05-07T23:08:28.251Z,3.10
2023-05-07T23:10:56.370Z,3.10
2023-05-07T23:13:24.379Z,2.75
2023-05-07T23:15:52.333Z,3.10
2023-05-07T23:18:20.152Z,2.60
2023-05-07T23:20:48.681Z,2.58
2023-05-07T23:23:16.842Z,2.70
2023-05-07T23:25:44.608Z,2.67
2023-05-07T23:28:12.965Z,2.70
2023-05-07T23:30:41.707Z,2.47
2023-05-07T23:33:09.657Z,2.53
2023-05-07T23:35:37.565Z,2.35
2023-05-07T23:38:05.456Z,3.17
2023-05-07T23:40:33.475Z,2.22
2023-05-07T23:43:02.135Z,2.45
2023-05-07T23:45:30.124Z,1.90
2023-05-07T23:48:01.477Z,1.60
2023-05-07T23:50:29.350Z,1.50
2023-05-07T23:52:57.664Z,1.60
2023-05-07T23:55:25.413Z,1.30
2023-05-07T23:57:53.731Z,1.60
